Jewett, Wisconsin
Current Conditions -  °F | °C
As of 5:15 AM on Saturday 01 Nov 2014 (Local Time) from KRNH Reporting Station
Clear Clear  
Wind Chill: 21°   Ceiling: Unl
Heat Index: 21°   Visibility: 10mi
Dew Point: 17°   Wind: 3mph
Humidity: 85%   Direction: 140°SE
Pressure: 30.46"   Gusts: NA
Location:  45.1804°N, 92.551°W
Report Text: KRNH 011015Z AUTO 14003KT 10SM CLR M06/M08 A3046 RMK AO2 T10611083
Loading
Personal Weather Stations






























Interactive Weather Map New forecast layout! Learn more

10-Day Weather Forecast

Advertisements
Track Severe Weather on mobile